createdAt,value
2022-08-31T00:00:33.401Z,100.00
2022-08-31T00:03:19.629Z,100.00
2022-08-31T00:05:50.230Z,100.00
2022-08-31T00:08:18.594Z,100.00
2022-08-31T00:10:47.908Z,100.00
2022-08-31T00:13:18.226Z,100.00
2022-08-31T00:15:46.905Z,100.00
2022-08-31T00:18:16.262Z,100.00
2022-08-31T00:20:45.560Z,100.00
2022-08-31T00:23:17.397Z,100.00
2022-08-31T00:25:49.971Z,100.00
2022-08-31T00:28:20.641Z,100.00
2022-08-31T00:30:49.773Z,100.00
2022-08-31T00:33:18.461Z,100.00
2022-08-31T00:35:47.079Z,100.00
2022-08-31T00:38:15.933Z,100.00
2022-08-31T00:40:46.706Z,100.00
2022-08-31T00:43:40.504Z,100.00
2022-08-31T00:46:11.384Z,100.00
2022-08-31T00:48:45.846Z,100.00
2022-08-31T00:51:18.705Z,100.00
2022-08-31T00:53:48.074Z,100.00
2022-08-31T00:56:20.876Z,100.00
2022-08-31T00:58:54.848Z,100.00
2022-08-31T01:01:24.145Z,100.00
2022-08-31T01:03:52.700Z,100.00
2022-08-31T01:06:21.661Z,100.00
2022-08-31T01:08:51.338Z,100.00
2022-08-31T01:11:20.823Z,100.00
2022-08-31T01:13:50.751Z,100.00
2022-08-31T01:16:25.392Z,100.00
2022-08-31T01:18:56.823Z,100.00
2022-08-31T01:21:30.137Z,100.00
2022-08-31T01:24:02.881Z,100.00
2022-08-31T01:26:33.395Z,100.00
2022-08-31T01:29:06.667Z,100.00
2022-08-31T01:31:39.877Z,100.00
2022-08-31T01:34:08.472Z,100.00
2022-08-31T01:36:39.658Z,100.00
2022-08-31T01:39:11.056Z,100.00
2022-08-31T01:41:43.351Z,100.00
2022-08-31T01:44:14.814Z,100.00
2022-08-31T01:46:44.563Z,100.00
2022-08-31T01:49:13.600Z,100.00
2022-08-31T01:51:42.545Z,100.00
2022-08-31T01:54:12.777Z,100.00
2022-08-31T01:56:46.174Z,100.00
2022-08-31T01:59:17.125Z,100.00
2022-08-31T02:01:48.628Z,100.00
2022-08-31T02:04:22.045Z,100.00
2022-08-31T02:06:53.519Z,100.00
2022-08-31T02:09:23.651Z,100.00
2022-08-31T02:11:52.836Z,100.00
2022-08-31T02:14:22.054Z,100.00
2022-08-31T02:16:50.925Z,100.00
2022-08-31T02:19:21.274Z,100.00
2022-08-31T02:21:49.726Z,100.00
2022-08-31T02:24:18.119Z,100.00
2022-08-31T02:26:53.175Z,100.00
2022-08-31T02:29:22.729Z,100.00
2022-08-31T02:31:51.833Z,100.00
2022-08-31T02:34:20.615Z,100.00
2022-08-31T02:36:48.850Z,100.00
2022-08-31T02:39:17.811Z,100.00
2022-08-31T02:41:48.381Z,100.00
2022-08-31T02:44:16.767Z,100.00
2022-08-31T02:46:45.234Z,100.00
2022-08-31T02:49:13.677Z,100.00
2022-08-31T02:51:42.766Z,100.00
2022-08-31T02:54:12.373Z,100.00
2022-08-31T02:56:40.918Z,100.00
2022-08-31T02:59:11.161Z,100.00
2022-08-31T03:01:40.895Z,100.00
2022-08-31T03:04:09.460Z,100.00
2022-08-31T03:06:38.062Z,100.00
2022-08-31T03:09:06.664Z,100.00
2022-08-31T03:11:34.977Z,100.00
2022-08-31T03:14:03.210Z,100.00
2022-08-31T03:16:32.907Z,100.00
2022-08-31T03:19:01.085Z,100.00
2022-08-31T03:21:29.811Z,100.00
2022-08-31T03:23:58.572Z,100.00
2022-08-31T03:26:26.851Z,100.00
2022-08-31T03:28:55.866Z,100.00
2022-08-31T03:31:24.923Z,100.00
2022-08-31T03:33:55.367Z,100.00
2022-08-31T03:36:23.570Z,100.00
2022-08-31T03:38:51.872Z,100.00
2022-08-31T03:41:24.800Z,100.00
2022-08-31T03:43:53.632Z,100.00
2022-08-31T03:46:22.409Z,100.00
2022-08-31T03:48:50.648Z,100.00
2022-08-31T03:51:20.307Z,100.00
2022-08-31T03:53:48.606Z,100.00
2022-08-31T03:56:16.970Z,100.00
2022-08-31T03:58:45.375Z,100.00
2022-08-31T04:01:14.987Z,100.00
2022-08-31T04:03:43.853Z,100.00
2022-08-31T04:06:13.931Z,100.00
2022-08-31T04:08:43.751Z,100.00
2022-08-31T04:11:16.198Z,100.00
2022-08-31T04:13:45.153Z,100.00
2022-08-31T04:16:16.040Z,100.00
2022-08-31T04:18:46.545Z,100.00
2022-08-31T04:21:17.686Z,100.00
2022-08-31T04:23:47.480Z,100.00
2022-08-31T04:26:20.919Z,100.00
2022-08-31T04:28:49.810Z,100.00
2022-08-31T04:31:19.346Z,100.00
2022-08-31T04:33:48.207Z,100.00
2022-08-31T04:36:20.472Z,100.00
2022-08-31T04:38:54.878Z,100.00
2022-08-31T04:41:26.313Z,100.00
2022-08-31T04:43:57.244Z,100.00
2022-08-31T04:46:25.976Z,100.00
2022-08-31T04:48:54.496Z,100.00
2022-08-31T04:51:25.852Z,100.00
2022-08-31T04:53:56.527Z,100.00
2022-08-31T04:56:27.578Z,100.00
2022-08-31T04:58:58.854Z,100.00
2022-08-31T05:01:36.119Z,100.00
2022-08-31T05:04:13.737Z,100.00
2022-08-31T05:06:45.823Z,100.00
2022-08-31T05:09:19.696Z,100.00
2022-08-31T05:11:49.968Z,100.00
2022-08-31T05:14:18.392Z,100.00
2022-08-31T05:16:46.675Z,100.00
2022-08-31T05:19:15.460Z,100.00
2022-08-31T05:21:45.398Z,100.00
2022-08-31T05:24:18.438Z,100.00
2022-08-31T05:26:51.862Z,100.00
2022-08-31T05:29:23.680Z,100.00
2022-08-31T05:31:52.917Z,100.00
2022-08-31T05:34:22.365Z,100.00
2022-08-31T05:36:53.726Z,100.00
2022-08-31T05:39:24.062Z,100.00
2022-08-31T05:41:53.185Z,100.00
2022-08-31T05:44:22.867Z,100.00
2022-08-31T05:47:03.515Z,100.00
2022-08-31T05:49:32.642Z,100.00
2022-08-31T05:52:01.710Z,100.00
2022-08-31T05:54:31.406Z,100.00
2022-08-31T05:57:01.159Z,100.00
2022-08-31T05:59:30.905Z,100.00
2022-08-31T06:01:59.950Z,100.00
2022-08-31T06:04:31.143Z,100.00
2022-08-31T06:06:59.434Z,100.00
2022-08-31T06:09:31.574Z,100.00
2022-08-31T06:11:59.951Z,100.00
2022-08-31T06:14:28.127Z,100.00
2022-08-31T06:16:56.744Z,100.00
2022-08-31T06:19:25.776Z,100.00
2022-08-31T06:21:54.104Z,100.00
2022-08-31T06:24:22.571Z,100.00
2022-08-31T06:26:58.004Z,100.00
2022-08-31T06:29:31.493Z,100.00
2022-08-31T06:32:10.978Z,100.00
2022-08-31T06:34:43.594Z,100.00
2022-08-31T06:37:18.890Z,100.00
2022-08-31T06:39:47.941Z,100.00
2022-08-31T06:42:17.895Z,100.00
2022-08-31T06:44:46.418Z,100.00
2022-08-31T06:47:15.489Z,100.00
2022-08-31T06:49:43.969Z,100.00
2022-08-31T06:52:12.516Z,100.00
2022-08-31T06:54:40.703Z,100.00
2022-08-31T06:57:08.954Z,100.00
2022-08-31T06:59:38.699Z,100.00
2022-08-31T07:02:07.080Z,100.00
2022-08-31T07:04:37.328Z,100.00
2022-08-31T07:07:09.080Z,100.00
2022-08-31T07:09:37.306Z,100.00
2022-08-31T07:12:06.643Z,100.00
2022-08-31T07:14:35.659Z,100.00
2022-08-31T07:17:05.653Z,100.00
2022-08-31T07:19:34.026Z,100.00
2022-08-31T07:22:06.059Z,100.00
2022-08-31T07:24:35.500Z,100.00
2022-08-31T07:27:09.993Z,100.00
2022-08-31T07:29:41.317Z,100.00
2022-08-31T07:32:13.774Z,100.00
2022-08-31T07:34:44.044Z,100.00
2022-08-31T07:37:30.313Z,100.00
2022-08-31T07:40:16.385Z,100.00
2022-08-31T07:42:46.804Z,100.00
2022-08-31T07:45:22.592Z,100.00
2022-08-31T07:47:55.129Z,100.00
2022-08-31T07:50:23.980Z,100.00
2022-08-31T07:52:55.585Z,100.00
2022-08-31T07:55:26.251Z,100.00
2022-08-31T07:57:56.446Z,100.00
2022-08-31T08:00:28.081Z,100.00
2022-08-31T08:03:01.554Z,100.00
2022-08-31T08:05:31.879Z,100.00
2022-08-31T08:08:09.416Z,100.00
2022-08-31T08:10:42.768Z,100.00
2022-08-31T08:13:12.570Z,100.00
2022-08-31T08:15:41.202Z,100.00
2022-08-31T08:18:13.352Z,100.00
2022-08-31T08:20:42.066Z,100.00
2022-08-31T08:23:28.641Z,100.00
2022-08-31T08:26:01.587Z,100.00
2022-08-31T08:28:40.196Z,100.00
2022-08-31T08:31:15.005Z,100.00
2022-08-31T08:33:45.456Z,100.00
2022-08-31T08:36:18.336Z,100.00
2022-08-31T08:38:50.456Z,100.00
2022-08-31T08:41:21.704Z,100.00
2022-08-31T08:43:53.165Z,100.00
2022-08-31T08:46:35.071Z,100.00
2022-08-31T08:49:19.778Z,100.00
2022-08-31T08:51:54.454Z,100.00
2022-08-31T08:54:31.845Z,100.00
2022-08-31T08:57:01.491Z,100.00
2022-08-31T08:59:30.523Z,100.00
2022-08-31T09:02:04.995Z,100.00
2022-08-31T09:05:09.502Z,100.00
2022-08-31T09:07:56.235Z,100.00
2022-08-31T09:10:33.378Z,100.00
2022-08-31T09:13:22.369Z,100.00
2022-08-31T09:16:12.778Z,100.00
2022-08-31T09:18:49.704Z,100.00
2022-08-31T09:21:25.249Z,100.00
2022-08-31T09:24:02.375Z,100.00
2022-08-31T09:26:33.782Z,100.00
2022-08-31T09:29:03.745Z,100.00
2022-08-31T09:31:39.778Z,100.00
2022-08-31T09:34:28.464Z,100.00
2022-08-31T09:37:16.337Z,100.00
2022-08-31T09:39:48.437Z,100.00
2022-08-31T09:42:30.890Z,100.00
2022-08-31T09:45:02.758Z,100.00
2022-08-31T09:47:48.407Z,100.00
2022-08-31T09:50:31.624Z,100.00
2022-08-31T09:53:36.562Z,100.00
2022-08-31T09:56:17.473Z,100.00
2022-08-31T09:58:50.742Z,100.00
2022-08-31T10:01:30.102Z,100.00
2022-08-31T10:04:20.447Z,100.00
2022-08-31T10:06:56.488Z,100.00
2022-08-31T10:09:37.111Z,100.00
2022-08-31T10:12:12.565Z,100.00
2022-08-31T10:14:51.793Z,100.00
2022-08-31T10:17:32.036Z,100.00
2022-08-31T10:20:08.150Z,100.00
2022-08-31T10:22:42.057Z,100.00
2022-08-31T10:25:22.374Z,100.00
2022-08-31T10:27:59.706Z,100.00
2022-08-31T10:30:41.736Z,92.79
2022-08-31T10:33:17.720Z,98.02
2022-08-31T10:35:55.734Z,96.90
2022-08-31T10:38:35.755Z,89.29
2022-08-31T10:41:15.101Z,89.05
2022-08-31T10:43:53.485Z,87.02
2022-08-31T10:46:21.890Z,89.07
2022-08-31T10:48:54.277Z,87.57
2022-08-31T10:51:31.353Z,87.24
2022-08-31T10:54:24.585Z,80.01
2022-08-31T10:57:09.349Z,78.82
2022-08-31T10:59:56.154Z,79.01
2022-08-31T11:02:42.207Z,76.70
2022-08-31T11:05:36.160Z,71.63
2022-08-31T11:08:28.890Z,68.75
2022-08-31T11:10:59.448Z,71.22
2022-08-31T11:14:00.367Z,64.18
2022-08-31T11:16:57.033Z,66.07
2022-08-31T11:20:00.057Z,62.92
2022-08-31T11:23:42.195Z,60.08
2022-08-31T11:26:52.865Z,59.46
2022-08-31T11:29:41.463Z,62.53
2022-08-31T11:32:21.041Z,59.65
2022-08-31T11:34:53.461Z,59.64
2022-08-31T11:37:52.488Z,60.68
2022-08-31T11:41:03.606Z,59.61
2022-08-31T11:43:52.161Z,57.29
2022-08-31T11:47:06.934Z,56.16
2022-08-31T11:49:47.802Z,55.60
2022-08-31T11:55:35.171Z,54.62
2022-08-31T12:01:43.076Z,53.77
2022-08-31T12:05:05.676Z,54.68
2022-08-31T12:07:43.708Z,52.77
2022-08-31T12:10:35.010Z,54.35
2022-08-31T12:13:30.849Z,53.14
2022-08-31T12:16:11.998Z,53.76
2022-08-31T12:18:58.912Z,52.59
2022-08-31T12:21:59.389Z,51.27
2022-08-31T12:24:39.608Z,51.88
2022-08-31T12:27:33.272Z,52.22
2022-08-31T12:30:22.750Z,49.88
2022-08-31T12:33:00.200Z,50.05
2022-08-31T12:35:32.192Z,50.07
2022-08-31T12:38:04.731Z,51.28
2022-08-31T12:40:35.912Z,51.26
2022-08-31T12:43:17.302Z,49.90
2022-08-31T12:46:40.224Z,48.43
2022-08-31T12:49:39.975Z,50.29
2022-08-31T12:52:24.380Z,48.94
2022-08-31T12:55:10.048Z,48.85
2022-08-31T12:58:05.851Z,48.19
2022-08-31T13:00:37.325Z,47.66
2022-08-31T13:03:20.966Z,46.93
2022-08-31T13:06:08.307Z,46.49
2022-08-31T13:08:41.180Z,46.42
2022-08-31T13:11:25.697Z,45.58
2022-08-31T13:14:18.656Z,44.33
2022-08-31T13:16:50.381Z,45.25
2022-08-31T13:19:26.846Z,45.29
2022-08-31T13:21:59.998Z,43.39
2022-08-31T13:24:32.860Z,44.97
2022-08-31T13:27:20.326Z,44.46
2022-08-31T13:29:51.225Z,44.56
2022-08-31T13:32:33.363Z,42.59
2022-08-31T13:35:04.877Z,42.86
2022-08-31T13:37:40.035Z,42.46
2022-08-31T13:40:13.611Z,43.04
2022-08-31T13:42:46.793Z,43.82
2022-08-31T13:45:29.130Z,43.68
2022-08-31T13:48:01.530Z,42.31
2022-08-31T13:50:35.305Z,42.64
2022-08-31T13:56:01.307Z,43.52
2022-08-31T13:58:33.518Z,43.22
2022-08-31T14:01:24.975Z,42.35
2022-08-31T14:03:58.964Z,42.06
2022-08-31T14:06:34.999Z,42.73
2022-08-31T14:09:17.099Z,42.01
2022-08-31T14:11:53.318Z,41.23
2022-08-31T14:14:36.254Z,41.70
2022-08-31T14:17:09.706Z,41.16
2022-08-31T14:19:39.219Z,40.88
2022-08-31T14:22:28.403Z,40.12
2022-08-31T14:24:56.830Z,40.81
2022-08-31T14:27:27.013Z,40.57
2022-08-31T14:29:58.318Z,39.50
2022-08-31T14:32:29.356Z,39.34
2022-08-31T14:34:59.054Z,39.36
2022-08-31T14:37:30.155Z,39.34
2022-08-31T14:40:07.034Z,38.88
2022-08-31T14:42:39.136Z,38.04
2022-08-31T14:45:18.771Z,37.21
2022-08-31T14:47:52.179Z,36.52
2022-08-31T14:50:27.058Z,36.83
2022-08-31T14:52:57.652Z,36.86
2022-08-31T14:55:30.241Z,36.05
2022-08-31T14:58:05.256Z,35.81
2022-08-31T15:00:36.542Z,35.99
2022-08-31T15:03:08.284Z,35.70
2022-08-31T15:05:39.247Z,35.43
2022-08-31T15:08:08.679Z,36.20
2022-08-31T15:10:38.140Z,35.58
2022-08-31T15:13:16.124Z,34.54
2022-08-31T15:15:47.678Z,34.67
2022-08-31T15:18:16.643Z,35.21
2022-08-31T15:20:46.500Z,34.88
2022-08-31T15:23:22.718Z,34.34
2022-08-31T15:25:51.739Z,34.23
2022-08-31T15:28:20.400Z,34.25
2022-08-31T15:30:51.023Z,33.84
2022-08-31T15:33:21.590Z,33.86
2022-08-31T15:35:49.851Z,34.33
2022-08-31T15:38:18.505Z,34.81
2022-08-31T15:40:46.828Z,34.62
2022-08-31T15:43:15.844Z,35.36
2022-08-31T15:45:44.635Z,34.63
2022-08-31T15:48:31.891Z,34.49
2022-08-31T15:51:01.248Z,35.10
2022-08-31T15:53:30.929Z,34.83
2022-08-31T15:56:05.602Z,34.37
2022-08-31T15:58:34.900Z,35.02
2022-08-31T16:01:05.324Z,34.64
2022-08-31T16:03:35.779Z,34.94
2022-08-31T16:06:13.520Z,35.32
2022-08-31T16:08:42.588Z,35.76
2022-08-31T16:11:13.423Z,35.03
2022-08-31T16:13:49.914Z,35.11
2022-08-31T16:16:20.354Z,35.20
2022-08-31T16:18:52.745Z,35.35
2022-08-31T16:21:22.091Z,35.96
2022-08-31T16:23:59.505Z,36.55
2022-08-31T16:26:31.313Z,36.25
2022-08-31T16:29:01.621Z,36.95
2022-08-31T16:31:31.601Z,37.46
2022-08-31T16:34:01.253Z,38.10
2022-08-31T16:36:38.002Z,38.01
2022-08-31T16:39:06.462Z,38.84
2022-08-31T16:41:36.069Z,39.49
2022-08-31T16:44:21.605Z,40.11
2022-08-31T16:46:53.431Z,41.25
2022-08-31T16:49:34.213Z,41.87
2022-08-31T16:52:03.979Z,43.92
2022-08-31T16:54:41.363Z,45.40
2022-08-31T16:57:10.794Z,45.92
2022-08-31T16:59:41.848Z,47.53
2022-08-31T17:02:13.972Z,47.69
2022-08-31T17:04:52.560Z,50.62
2022-08-31T17:07:28.933Z,52.35
2022-08-31T17:10:07.282Z,52.44
2022-08-31T17:12:42.029Z,55.97
2022-08-31T17:15:13.887Z,54.66
2022-08-31T17:17:46.233Z,56.46
2022-08-31T17:20:16.767Z,58.65
2022-08-31T17:22:48.602Z,59.98
2022-08-31T17:25:17.794Z,60.31
2022-08-31T17:27:46.046Z,61.42
2022-08-31T17:30:19.903Z,64.12
2022-08-31T17:32:56.051Z,63.18
2022-08-31T17:35:25.904Z,64.17
2022-08-31T17:37:55.501Z,62.07
2022-08-31T17:40:23.921Z,66.24
2022-08-31T17:42:55.004Z,65.98
2022-08-31T17:45:28.310Z,65.39
2022-08-31T17:47:56.681Z,69.84
2022-08-31T17:50:26.620Z,67.37
2022-08-31T17:52:55.571Z,69.21
2022-08-31T17:55:38.422Z,71.19
2022-08-31T17:58:15.599Z,70.24
2022-08-31T18:00:54.680Z,73.69
2022-08-31T18:03:25.763Z,74.11
2022-08-31T18:06:00.613Z,76.13
2022-08-31T18:08:29.184Z,73.35
2022-08-31T18:10:57.476Z,77.30
2022-08-31T18:13:33.370Z,78.96
2022-08-31T18:16:03.244Z,78.99
2022-08-31T18:18:31.889Z,82.94
2022-08-31T18:21:05.518Z,79.73
2022-08-31T18:23:40.062Z,82.63
2022-08-31T18:26:23.366Z,82.28
2022-08-31T18:28:53.188Z,80.35
2022-08-31T18:31:32.459Z,91.88
2022-08-31T18:34:03.963Z,100.00
2022-08-31T18:36:38.776Z,100.00
2022-08-31T18:39:13.739Z,100.00
2022-08-31T18:42:03.507Z,100.00
2022-08-31T18:44:50.894Z,100.00
2022-08-31T18:47:21.152Z,100.00
2022-08-31T18:49:50.765Z,100.00
2022-08-31T18:52:22.750Z,100.00
2022-08-31T18:54:52.705Z,100.00
2022-08-31T18:57:23.804Z,100.00
2022-08-31T18:59:53.399Z,100.00
2022-08-31T19:02:23.113Z,100.00
2022-08-31T19:04:52.789Z,100.00
2022-08-31T19:07:23.043Z,100.00
2022-08-31T19:09:55.059Z,100.00
2022-08-31T19:12:24.643Z,100.00
2022-08-31T19:14:55.428Z,100.00
2022-08-31T19:17:24.331Z,100.00
2022-08-31T19:19:56.438Z,100.00
2022-08-31T19:22:26.213Z,100.00
2022-08-31T19:24:54.602Z,100.00
2022-08-31T19:27:23.559Z,100.00
2022-08-31T19:29:55.722Z,100.00
2022-08-31T19:32:24.075Z,100.00
2022-08-31T19:34:52.424Z,100.00
2022-08-31T19:37:21.271Z,100.00
2022-08-31T19:39:51.008Z,100.00
2022-08-31T19:42:19.871Z,100.00
2022-08-31T19:45:22.494Z,100.00
2022-08-31T19:47:38.891Z,100.00
2022-08-31T19:50:13.741Z,100.00
2022-08-31T19:52:43.271Z,100.00
2022-08-31T19:55:14.172Z,100.00
2022-08-31T19:57:43.408Z,100.00
2022-08-31T20:00:15.396Z,100.00
2022-08-31T20:02:44.865Z,100.00
2022-08-31T20:05:15.290Z,100.00
2022-08-31T20:07:45.319Z,100.00
2022-08-31T20:10:15.520Z,100.00
2022-08-31T20:12:44.827Z,100.00
2022-08-31T20:15:15.433Z,100.00
2022-08-31T20:17:43.744Z,100.00
2022-08-31T20:20:13.482Z,100.00
2022-08-31T20:22:41.877Z,100.00
2022-08-31T20:25:18.849Z,100.00
2022-08-31T20:27:50.635Z,100.00
2022-08-31T20:30:19.421Z,100.00
2022-08-31T20:32:47.768Z,100.00
2022-08-31T20:35:16.345Z,100.00
2022-08-31T20:37:44.765Z,100.00
2022-08-31T20:40:17.191Z,100.00
2022-08-31T20:42:45.801Z,100.00
2022-08-31T20:45:15.765Z,100.00
2022-08-31T20:48:02.362Z,100.00
2022-08-31T20:50:30.839Z,100.00
2022-08-31T20:52:59.173Z,100.00
2022-08-31T20:55:29.801Z,100.00
2022-08-31T20:57:58.511Z,100.00
2022-08-31T21:00:29.944Z,100.00
2022-08-31T21:03:00.270Z,100.00
2022-08-31T21:05:38.676Z,100.00
2022-08-31T21:08:07.703Z,100.00
2022-08-31T21:10:40.066Z,100.00
2022-08-31T21:13:12.711Z,100.00
2022-08-31T21:15:46.132Z,100.00
2022-08-31T21:18:17.283Z,100.00
2022-08-31T21:20:46.478Z,100.00
2022-08-31T21:23:15.141Z,100.00
2022-08-31T21:25:45.717Z,100.00
2022-08-31T21:28:17.064Z,100.00
2022-08-31T21:30:50.081Z,100.00
2022-08-31T21:33:23.494Z,100.00
2022-08-31T21:36:02.054Z,100.00
2022-08-31T21:38:32.057Z,100.00
2022-08-31T21:41:00.958Z,100.00
2022-08-31T21:43:29.333Z,100.00
2022-08-31T21:46:08.398Z,100.00
2022-08-31T21:48:40.054Z,100.00
2022-08-31T21:51:14.458Z,100.00
2022-08-31T21:53:45.830Z,100.00
2022-08-31T21:56:14.406Z,100.00
2022-08-31T21:58:42.873Z,100.00
2022-08-31T22:01:18.062Z,100.00
2022-08-31T22:03:47.022Z,100.00
2022-08-31T22:06:22.011Z,100.00
2022-08-31T22:09:00.194Z,100.00
2022-08-31T22:11:32.080Z,100.00
2022-08-31T22:14:02.640Z,100.00
2022-08-31T22:16:32.572Z,100.00
2022-08-31T22:19:02.301Z,100.00
2022-08-31T22:21:34.657Z,100.00
2022-08-31T22:24:09.245Z,100.00
2022-08-31T22:26:42.768Z,100.00
2022-08-31T22:29:15.181Z,100.00
2022-08-31T22:31:44.886Z,100.00
2022-08-31T22:34:13.782Z,100.00
2022-08-31T22:36:45.398Z,100.00
2022-08-31T22:39:22.654Z,100.00
2022-08-31T22:41:51.779Z,100.00
2022-08-31T22:44:23.045Z,100.00
2022-08-31T22:46:53.694Z,100.00
2022-08-31T22:49:22.139Z,100.00
2022-08-31T22:51:50.423Z,100.00
2022-08-31T22:54:21.494Z,100.00
2022-08-31T22:56:50.670Z,100.00
2022-08-31T22:59:26.949Z,100.00
2022-08-31T23:02:00.588Z,100.00
2022-08-31T23:04:33.221Z,100.00
2022-08-31T23:07:04.168Z,100.00
2022-08-31T23:09:34.299Z,100.00
2022-08-31T23:12:05.927Z,100.00
2022-08-31T23:14:34.635Z,100.00
2022-08-31T23:17:08.905Z,100.00
2022-08-31T23:19:41.036Z,100.00
2022-08-31T23:22:12.394Z,100.00
2022-08-31T23:24:46.874Z,100.00
2022-08-31T23:27:19.333Z,100.00
2022-08-31T23:29:51.678Z,100.00
2022-08-31T23:32:26.231Z,100.00
2022-08-31T23:34:56.495Z,100.00
2022-08-31T23:37:26.021Z,100.00
2022-08-31T23:39:56.482Z,100.00
2022-08-31T23:42:27.785Z,100.00
2022-08-31T23:44:57.447Z,100.00
2022-08-31T23:47:31.796Z,100.00
2022-08-31T23:50:04.682Z,100.00
2022-08-31T23:52:41.375Z,100.00
2022-08-31T23:55:13.041Z,100.00
2022-08-31T23:57:41.813Z,100.00
